sensor_id;sensor_type;location;lat;lon;timestamp;pressure;altitude;pressure_sealevel;temperature;humidity
38939;BME280;24211;49.980;19.776;2022-10-18T00:13:09;100404.19;;;11.47;100.00
38939;BME280;24211;49.980;19.776;2022-10-18T01:40:21;100401.13;;;10.42;100.00
38939;BME280;24211;49.980;19.776;2022-10-18T01:42:50;100400.69;;;10.39;100.00
38939;BME280;24211;49.980;19.776;2022-10-18T01:45:21;100393.25;;;10.34;100.00
38939;BME280;24211;49.980;19.776;2022-10-18T02:13:57;100397.56;;;10.08;100.00
38939;BME280;24211;49.980;19.776;2022-10-18T02:21:57;100391.56;;;9.99;100.00
38939;BME280;24211;49.980;19.776;2022-10-18T02:24:34;100395.44;;;9.97;100.00
38939;BME280;24211;49.980;19.776;2022-10-18T02:45:25;100387.53;;;9.82;100.00
38939;BME280;24211;49.980;19.776;2022-10-18T02:47:52;100392.25;;;9.80;100.00
38939;BME280;24211;49.980;19.776;2022-10-18T02:50:20;100388.28;;;9.76;100.00
38939;BME280;24211;49.980;19.776;2022-10-18T02:52:47;100381.72;;;9.72;100.00
38939;BME280;24211;49.980;19.776;2022-10-18T02:55:16;100390.94;;;9.69;100.00
38939;BME280;24211;49.980;19.776;2022-10-18T03:23:13;100394.50;;;9.34;100.00
38939;BME280;24211;49.980;19.776;2022-10-18T03:26:08;100397.72;;;9.30;100.00
38939;BME280;24211;49.980;19.776;2022-10-18T03:28:35;100388.84;;;9.23;100.00
38939;BME280;24211;49.980;19.776;2022-10-18T03:31:10;100390.25;;;9.18;100.00
38939;BME280;24211;49.980;19.776;2022-10-18T03:34:12;100391.44;;;9.16;100.00
38939;BME280;24211;49.980;19.776;2022-10-18T05:49:41;100411.00;;;8.14;100.00
38939;BME280;24211;49.980;19.776;2022-10-18T05:52:45;100411.09;;;8.21;100.00
38939;BME280;24211;49.980;19.776;2022-10-18T05:55:42;100409.75;;;8.25;100.00
38939;BME280;24211;49.980;19.776;2022-10-18T06:15:56;100422.34;;;8.60;100.00
38939;BME280;24211;49.980;19.776;2022-10-18T06:18:38;100421.88;;;8.71;100.00
38939;BME280;24211;49.980;19.776;2022-10-18T06:21:07;100414.44;;;8.81;100.00
38939;BME280;24211;49.980;19.776;2022-10-18T06:24:01;100407.97;;;8.90;100.00
38939;BME280;24211;49.980;19.776;2022-10-18T07:05:59;100411.34;;;11.27;100.00
38939;BME280;24211;49.980;19.776;2022-10-18T07:17:00;100403.81;;;12.03;100.00
38939;BME280;24211;49.980;19.776;2022-10-18T07:38:47;100384.88;;;13.50;100.00
38939;BME280;24211;49.980;19.776;2022-10-18T07:41:14;100387.78;;;13.73;100.00
38939;BME280;24211;49.980;19.776;2022-10-18T07:49:19;100384.56;;;14.32;100.00
38939;BME280;24211;49.980;19.776;2022-10-18T07:51:47;100383.63;;;14.45;100.00
38939;BME280;24211;49.980;19.776;2022-10-18T07:54:14;100380.84;;;14.70;100.00
38939;BME280;24211;49.980;19.776;2022-10-18T07:56:41;100371.50;;;14.90;100.00
38939;BME280;24211;49.980;19.776;2022-10-18T07:59:09;100368.53;;;15.10;100.00
38939;BME280;24211;49.980;19.776;2022-10-18T08:01:37;100365.59;;;15.12;100.00
38939;BME280;24211;49.980;19.776;2022-10-18T08:04:04;100359.91;;;15.20;100.00
38939;BME280;24211;49.980;19.776;2022-10-18T08:06:36;100357.69;;;15.28;100.00
38939;BME280;24211;49.980;19.776;2022-10-18T08:09:03;100358.81;;;15.50;100.00
38939;BME280;24211;49.980;19.776;2022-10-18T08:11:32;100355.59;;;15.72;100.00
38939;BME280;24211;49.980;19.776;2022-10-18T08:13:59;100353.16;;;15.82;100.00
38939;BME280;24211;49.980;19.776;2022-10-18T08:16:28;100351.25;;;16.28;100.00
38939;BME280;24211;49.980;19.776;2022-10-18T08:19:05;100342.91;;;17.38;100.00
38939;BME280;24211;49.980;19.776;2022-10-18T08:21:33;100338.19;;;18.71;93.88
38939;BME280;24211;49.980;19.776;2022-10-18T08:24:10;100334.81;;;19.66;80.82
38939;BME280;24211;49.980;19.776;2022-10-18T08:26:37;100340.38;;;20.23;73.71
38939;BME280;24211;49.980;19.776;2022-10-18T08:29:04;100331.34;;;20.64;69.09
38939;BME280;24211;49.980;19.776;2022-10-18T08:31:52;100324.91;;;20.85;66.98
38939;BME280;24211;49.980;19.776;2022-10-18T08:34:19;100315.50;;;21.18;64.24
38939;BME280;24211;49.980;19.776;2022-10-18T08:36:46;100323.94;;;21.22;63.45
38939;BME280;24211;49.980;19.776;2022-10-18T08:39:13;100314.53;;;20.67;67.61
38939;BME280;24211;49.980;19.776;2022-10-18T08:44:30;100327.03;;;17.91;100.00
38939;BME280;24211;49.980;19.776;2022-10-18T08:47:32;100319.63;;;17.65;100.00
38939;BME280;24211;49.980;19.776;2022-10-18T08:50:16;100309.88;;;17.64;100.00
38939;BME280;24211;49.980;19.776;2022-10-18T08:53:14;100311.66;;;17.75;100.00
38939;BME280;24211;49.980;19.776;2022-10-18T08:56:16;100318.44;;;17.94;100.00
38939;BME280;24211;49.980;19.776;2022-10-18T08:58:47;100307.50;;;18.22;100.00
38939;BME280;24211;49.980;19.776;2022-10-18T09:45:42;100232.41;;;20.40;97.73
38939;BME280;24211;49.980;19.776;2022-10-18T09:51:16;100225.44;;;20.69;95.62
38939;BME280;24211;49.980;19.776;2022-10-18T09:57:13;100215.16;;;20.97;93.72
38939;BME280;24211;49.980;19.776;2022-10-18T09:59:50;100212.47;;;21.12;91.76
38939;BME280;24211;49.980;19.776;2022-10-18T10:02:42;100208.69;;;21.13;91.66
38939;BME280;24211;49.980;19.776;2022-10-18T10:10:18;100211.66;;;21.31;88.19
38939;BME280;24211;49.980;19.776;2022-10-18T10:12:47;100199.13;;;21.40;87.17
38939;BME280;24211;49.980;19.776;2022-10-18T10:15:28;100199.41;;;21.44;84.27
38939;BME280;24211;49.980;19.776;2022-10-18T10:18:25;100191.22;;;21.59;84.94
38939;BME280;24211;49.980;19.776;2022-10-18T10:21:03;100186.81;;;21.73;84.93
38939;BME280;24211;49.980;19.776;2022-10-18T10:23:56;100184.63;;;21.75;83.60
38939;BME280;24211;49.980;19.776;2022-10-18T10:26:32;100176.47;;;21.75;81.86
38939;BME280;24211;49.980;19.776;2022-10-18T10:32:17;100169.28;;;22.09;78.85
38939;BME280;24211;49.980;19.776;2022-10-18T10:34:45;100167.38;;;22.15;79.06
38939;BME280;24211;49.980;19.776;2022-10-18T10:37:26;100151.81;;;22.26;78.03
38939;BME280;24211;49.980;19.776;2022-10-18T10:40:06;100145.72;;;22.39;76.02
38939;BME280;24211;49.980;19.776;2022-10-18T10:43:14;100143.44;;;22.51;77.30
38939;BME280;24211;49.980;19.776;2022-10-18T10:46:14;100139.84;;;22.65;73.58
38939;BME280;24211;49.980;19.776;2022-10-18T10:48:56;100135.66;;;22.78;71.54
38939;BME280;24211;49.980;19.776;2022-10-18T10:51:52;100127.41;;;22.88;70.22
38939;BME280;24211;49.980;19.776;2022-10-18T10:54:44;100120.81;;;22.94;70.92
38939;BME280;24211;49.980;19.776;2022-10-18T10:57:25;100112.78;;;23.08;66.56
38939;BME280;24211;49.980;19.776;2022-10-18T10:59:57;100116.78;;;23.15;65.88
38939;BME280;24211;49.980;19.776;2022-10-18T11:02:33;100104.16;;;23.24;66.42
38939;BME280;24211;49.980;19.776;2022-10-18T11:05:25;100099.41;;;23.35;67.02
38939;BME280;24211;49.980;19.776;2022-10-18T11:07:59;100094.69;;;23.46;65.62
38939;BME280;24211;49.980;19.776;2022-10-18T11:10:33;100090.66;;;23.62;62.10
38939;BME280;24211;49.980;19.776;2022-10-18T11:13:30;100087.28;;;23.70;58.06
38939;BME280;24211;49.980;19.776;2022-10-18T11:16:32;100075.59;;;23.88;57.22
38939;BME280;24211;49.980;19.776;2022-10-18T11:19:27;100081.22;;;23.96;55.11
38939;BME280;24211;49.980;19.776;2022-10-18T11:21:57;100078.72;;;24.00;54.64
38939;BME280;24211;49.980;19.776;2022-10-18T11:24:29;100066.91;;;24.04;54.11
38939;BME280;24211;49.980;19.776;2022-10-18T11:27:33;100057.84;;;24.09;53.53
38939;BME280;24211;49.980;19.776;2022-10-18T11:30:43;100057.19;;;24.17;53.84
38939;BME280;24211;49.980;19.776;2022-10-18T11:34:10;100048.16;;;24.35;52.62
38939;BME280;24211;49.980;19.776;2022-10-18T11:37:05;100047.56;;;24.38;51.37
38939;BME280;24211;49.980;19.776;2022-10-18T11:40:48;100041.53;;;24.41;51.13
38939;BME280;24211;49.980;19.776;2022-10-18T11:52:06;100030.75;;;24.63;46.98
38939;BME280;24211;49.980;19.776;2022-10-18T11:55:15;100031.66;;;24.59;47.56
38939;BME280;24211;49.980;19.776;2022-10-18T12:06:47;100019.59;;;24.79;49.40
38939;BME280;24211;49.980;19.776;2022-10-18T12:09:35;100009.25;;;24.89;50.70
38939;BME280;24211;49.980;19.776;2022-10-18T12:12:13;100004.63;;;25.17;48.27
38939;BME280;24211;49.980;19.776;2022-10-18T12:14:51;100001.59;;;25.32;47.71
38939;BME280;24211;49.980;19.776;2022-10-18T12:20:26;99993.78;;;25.39;47.76
38939;BME280;24211;49.980;19.776;2022-10-18T12:23:02;99986.00;;;25.46;47.72
38939;BME280;24211;49.980;19.776;2022-10-18T12:25:45;99983.94;;;25.65;46.31
38939;BME280;24211;49.980;19.776;2022-10-18T12:31:13;99977.00;;;25.81;45.20
38939;BME280;24211;49.980;19.776;2022-10-18T12:33:56;99967.03;;;25.85;44.84
38939;BME280;24211;49.980;19.776;2022-10-18T12:39:43;99967.97;;;25.81;44.74
38939;BME280;24211;49.980;19.776;2022-10-18T12:42:39;99954.91;;;25.78;46.11
38939;BME280;24211;49.980;19.776;2022-10-18T12:47:39;99946.69;;;25.78;47.16
38939;BME280;24211;49.980;19.776;2022-10-18T12:50:36;99938.47;;;25.78;47.26
38939;BME280;24211;49.980;19.776;2022-10-18T12:53:26;99940.03;;;25.92;46.48
38939;BME280;24211;49.980;19.776;2022-10-18T12:55:54;99937.53;;;26.18;44.67
38939;BME280;24211;49.980;19.776;2022-10-18T12:58:41;99940.59;;;26.17;43.01
38939;BME280;24211;49.980;19.776;2022-10-18T13:01:08;99934.69;;;26.10;42.95
38939;BME280;24211;49.980;19.776;2022-10-18T13:03:49;99923.19;;;25.99;42.55
38939;BME280;24211;49.980;19.776;2022-10-18T13:06:17;99924.41;;;25.93;44.01
38939;BME280;24211;49.980;19.776;2022-10-18T13:08:44;99917.94;;;25.89;43.88
38939;BME280;24211;49.980;19.776;2022-10-18T13:11:29;99908.66;;;25.76;44.85
38939;BME280;24211;49.980;19.776;2022-10-18T13:14:09;99908.91;;;25.66;46.27
38939;BME280;24211;49.980;19.776;2022-10-18T13:17:05;99906.78;;;25.63;45.97
38939;BME280;24211;49.980;19.776;2022-10-18T13:20:20;99908.53;;;25.59;47.20
38939;BME280;24211;49.980;19.776;2022-10-18T13:26:44;99880.59;;;25.35;48.53
38939;BME280;24211;49.980;19.776;2022-10-18T13:32:56;99873.56;;;25.07;53.22
38939;BME280;24211;49.980;19.776;2022-10-18T13:35:43;99879.22;;;24.97;53.88
38939;BME280;24211;49.980;19.776;2022-10-18T13:38:46;99864.06;;;24.91;49.89
38939;BME280;24211;49.980;19.776;2022-10-18T13:41:26;99862.63;;;24.80;52.35
38939;BME280;24211;49.980;19.776;2022-10-18T13:44:34;99848.66;;;24.67;49.92
38939;BME280;24211;49.980;19.776;2022-10-18T13:47:12;99867.97;;;24.57;51.85
38939;BME280;24211;49.980;19.776;2022-10-18T13:52:56;99853.69;;;24.33;50.57
38939;BME280;24211;49.980;19.776;2022-10-18T13:59:17;99850.38;;;24.04;55.69
38939;BME280;24211;49.980;19.776;2022-10-18T14:06:05;99846.75;;;23.76;58.17
38939;BME280;24211;49.980;19.776;2022-10-18T14:12:27;99843.03;;;23.54;57.82
38939;BME280;24211;49.980;19.776;2022-10-18T14:15:23;99838.34;;;23.40;58.47
38939;BME280;24211;49.980;19.776;2022-10-18T14:18:01;99834.59;;;23.36;54.67
38939;BME280;24211;49.980;19.776;2022-10-18T14:20:39;99839.47;;;23.34;54.26
38939;BME280;24211;49.980;19.776;2022-10-18T14:23:40;99836.44;;;23.17;54.85
38939;BME280;24211;49.980;19.776;2022-10-18T14:26:19;99836.00;;;23.10;54.07
38939;BME280;24211;49.980;19.776;2022-10-18T14:29:18;99832.91;;;22.98;54.76
38939;BME280;24211;49.980;19.776;2022-10-18T14:31:59;99830.97;;;22.80;55.43
38939;BME280;24211;49.980;19.776;2022-10-18T14:35:19;99838.75;;;22.68;57.11
38939;BME280;24211;49.980;19.776;2022-10-18T15:07:57;99821.84;;;21.56;69.88
38939;BME280;24211;49.980;19.776;2022-10-18T15:10:33;99815.13;;;21.48;68.62
38939;BME280;24211;49.980;19.776;2022-10-18T15:13:03;99820.88;;;21.42;71.36
38939;BME280;24211;49.980;19.776;2022-10-18T15:15:43;99816.84;;;21.34;71.84
38939;BME280;24211;49.980;19.776;2022-10-18T15:18:23;99815.25;;;21.28;71.78
38939;BME280;24211;49.980;19.776;2022-10-18T15:21:21;99821.03;;;21.22;73.05
38939;BME280;24211;49.980;19.776;2022-10-18T15:23:49;99820.53;;;21.15;73.80
38939;BME280;24211;49.980;19.776;2022-10-18T15:26:27;99820.81;;;21.08;74.78
38939;BME280;24211;49.980;19.776;2022-10-18T15:29:18;99821.41;;;21.00;75.67
38939;BME280;24211;49.980;19.776;2022-10-18T15:31:51;99810.81;;;20.94;76.52
38939;BME280;24211;49.980;19.776;2022-10-18T15:34:23;99814.66;;;20.88;77.33
38939;BME280;24211;49.980;19.776;2022-10-18T15:36:54;99819.59;;;20.80;77.75
38939;BME280;24211;49.980;19.776;2022-10-18T15:39:25;99806.59;;;20.72;78.11
38939;BME280;24211;49.980;19.776;2022-10-18T15:41:56;99802.25;;;20.66;78.75
38939;BME280;24211;49.980;19.776;2022-10-18T15:44:33;99799.31;;;20.58;78.91
38939;BME280;24211;49.980;19.776;2022-10-18T15:47:20;99802.59;;;20.50;80.07
38939;BME280;24211;49.980;19.776;2022-10-18T16:06:16;99806.81;;;19.92;85.38
38939;BME280;24211;49.980;19.776;2022-10-18T16:18:52;99813.34;;;19.55;88.83
38939;BME280;24211;49.980;19.776;2022-10-18T16:23:52;99807.63;;;19.42;89.65
38939;BME280;24211;49.980;19.776;2022-10-18T16:26:21;99813.31;;;19.35;90.11
38939;BME280;24211;49.980;19.776;2022-10-18T16:28:49;99819.78;;;19.29;90.68
38939;BME280;24211;49.980;19.776;2022-10-18T16:31:21;99821.41;;;19.20;91.24
38939;BME280;24211;49.980;19.776;2022-10-18T16:33:50;99821.69;;;19.14;92.09
38939;BME280;24211;49.980;19.776;2022-10-18T16:36:22;99823.25;;;19.05;92.21
38939;BME280;24211;49.980;19.776;2022-10-18T16:38:50;99823.53;;;18.98;92.65
38939;BME280;24211;49.980;19.776;2022-10-18T16:41:18;99830.28;;;18.90;93.24
38939;BME280;24211;49.980;19.776;2022-10-18T16:43:47;99822.41;;;18.84;93.58
38939;BME280;24211;49.980;19.776;2022-10-18T16:46:24;99825.09;;;18.79;93.82
38939;BME280;24211;49.980;19.776;2022-10-18T16:48:56;99818.03;;;18.73;94.39
38939;BME280;24211;49.980;19.776;2022-10-18T16:51:24;99822.88;;;18.66;94.50
38939;BME280;24211;49.980;19.776;2022-10-18T16:53:52;99821.25;;;18.60;94.76
38939;BME280;24211;49.980;19.776;2022-10-18T16:56:30;99823.34;;;18.53;95.14
38939;BME280;24211;49.980;19.776;2022-10-18T16:58:58;99823.31;;;18.48;95.68
38939;BME280;24211;49.980;19.776;2022-10-18T17:01:26;99816.53;;;18.40;95.95
38939;BME280;24211;49.980;19.776;2022-10-18T17:03:53;99822.16;;;18.34;97.69
38939;BME280;24211;49.980;19.776;2022-10-18T17:06:28;99835.09;;;18.26;97.95
38939;BME280;24211;49.980;19.776;2022-10-18T17:08:57;99835.06;;;18.21;98.55
38939;BME280;24211;49.980;19.776;2022-10-18T17:11:27;99832.34;;;18.16;98.44
38939;BME280;24211;49.980;19.776;2022-10-18T17:13:54;99842.56;;;18.09;99.47
38939;BME280;24211;49.980;19.776;2022-10-18T17:16:26;99839.00;;;18.04;99.29
38939;BME280;24211;49.980;19.776;2022-10-18T17:19:06;99830.06;;;17.98;98.57
38939;BME280;24211;49.980;19.776;2022-10-18T17:21:35;99845.16;;;17.94;98.91
38939;BME280;24211;49.980;19.776;2022-10-18T17:24:03;99848.66;;;17.90;99.99
38939;BME280;24211;49.980;19.776;2022-10-18T17:26:37;99859.72;;;17.83;100.00
38939;BME280;24211;49.980;19.776;2022-10-18T17:29:06;99859.13;;;17.76;100.00
38939;BME280;24211;49.980;19.776;2022-10-18T17:32:03;99852.00;;;17.70;100.00
38939;BME280;24211;49.980;19.776;2022-10-18T17:34:37;99857.38;;;17.65;100.00
38939;BME280;24211;49.980;19.776;2022-10-18T17:37:11;99855.44;;;17.60;100.00
38939;BME280;24211;49.980;19.776;2022-10-18T17:39:42;99862.69;;;17.55;100.00
38939;BME280;24211;49.980;19.776;2022-10-18T17:42:10;99868.59;;;17.52;100.00
38939;BME280;24211;49.980;19.776;2022-10-18T20:14:09;99919.59;;;16.57;100.00
38939;BME280;24211;49.980;19.776;2022-10-18T20:54:47;100004.75;;;16.03;100.00
38939;BME280;24211;49.980;19.776;2022-10-18T21:32:47;100046.41;;;16.12;100.00
38939;BME280;24211;49.980;19.776;2022-10-18T21:52:10;100065.16;;;15.90;100.00
38939;BME280;24211;49.980;19.776;2022-10-18T21:54:37;100067.53;;;15.87;100.00
38939;BME280;24211;49.980;19.776;2022-10-18T21:57:04;100061.59;;;15.85;100.00
38939;BME280;24211;49.980;19.776;2022-10-18T21:59:34;100053.41;;;15.80;100.00
38939;BME280;24211;49.980;19.776;2022-10-18T22:02:42;100052.09;;;15.82;100.00
38939;BME280;24211;49.980;19.776;2022-10-18T22:05:16;100052.91;;;15.83;100.00
38939;BME280;24211;49.980;19.776;2022-10-18T22:09:05;100057.25;;;15.84;100.00
38939;BME280;24211;49.980;19.776;2022-10-18T22:12:48;100048.00;;;15.80;100.00
38939;BME280;24211;49.980;19.776;2022-10-18T22:16:08;100048.47;;;15.77;100.00
38939;BME280;24211;49.980;19.776;2022-10-18T22:18:37;100046.00;;;15.75;100.00
38939;BME280;24211;49.980;19.776;2022-10-18T22:21:11;100047.81;;;15.69;100.00
38939;BME280;24211;49.980;19.776;2022-10-18T22:29:19;100037.75;;;15.65;100.00
38939;BME280;24211;49.980;19.776;2022-10-18T22:53:59;100034.03;;;15.54;100.00
38939;BME280;24211;49.980;19.776;2022-10-18T23:48:13;100072.84;;;15.07;100.00
